sensor_id;sensor_type;location;lat;lon;timestamp;temperature;humidity
39315;DHT22;28703;44.412;11.918;2023-03-31T00:00:56;15.40;95.30
39315;DHT22;28703;44.412;11.918;2023-03-31T00:03:25;15.40;95.40
39315;DHT22;28703;44.412;11.918;2023-03-31T00:05:58;15.30;95.40
39315;DHT22;28703;44.412;11.918;2023-03-31T00:08:26;15.30;95.40
39315;DHT22;28703;44.412;11.918;2023-03-31T00:10:58;15.30;95.40
39315;DHT22;28703;44.412;11.918;2023-03-31T00:13:24;15.30;95.40
39315;DHT22;28703;44.412;11.918;2023-03-31T00:16:06;15.30;95.30
39315;DHT22;28703;44.412;11.918;2023-03-31T00:18:33;15.40;95.30
39315;DHT22;28703;44.412;11.918;2023-03-31T00:21:10;15.40;95.40
39315;DHT22;28703;44.412;11.918;2023-03-31T00:23:56;15.40;95.40
39315;DHT22;28703;44.412;11.918;2023-03-31T00:26:23;15.40;95.40
39315;DHT22;28703;44.412;11.918;2023-03-31T00:28:49;15.40;95.40
39315;DHT22;28703;44.412;11.918;2023-03-31T00:31:16;15.40;95.40
39315;DHT22;28703;44.412;11.918;2023-03-31T00:33:42;15.40;95.30
39315;DHT22;28703;44.412;11.918;2023-03-31T00:36:13;15.40;95.30
39315;DHT22;28703;44.412;11.918;2023-03-31T00:38:48;15.40;95.40
39315;DHT22;28703;44.412;11.918;2023-03-31T00:41:14;15.40;95.40
39315;DHT22;28703;44.412;11.918;2023-03-31T00:43:41;15.40;95.50
39315;DHT22;28703;44.412;11.918;2023-03-31T00:48:52;15.40;95.50
39315;DHT22;28703;44.412;11.918;2023-03-31T00:51:25;15.40;95.50
39315;DHT22;28703;44.412;11.918;2023-03-31T00:53:56;15.30;95.50
39315;DHT22;28703;44.412;11.918;2023-03-31T00:56:25;15.30;95.40
39315;DHT22;28703;44.412;11.918;2023-03-31T00:58:52;15.30;95.50
39315;DHT22;28703;44.412;11.918;2023-03-31T01:01:23;15.20;95.50
39315;DHT22;28703;44.412;11.918;2023-03-31T01:03:49;15.20;95.60
39315;DHT22;28703;44.412;11.918;2023-03-31T01:06:17;15.20;95.70
39315;DHT22;28703;44.412;11.918;2023-03-31T01:08:46;15.20;95.80
39315;DHT22;28703;44.412;11.918;2023-03-31T01:11:15;15.20;95.90
39315;DHT22;28703;44.412;11.918;2023-03-31T01:13:42;15.10;95.70
39315;DHT22;28703;44.412;11.918;2023-03-31T01:16:09;15.10;96.00
39315;DHT22;28703;44.412;11.918;2023-03-31T01:18:35;15.10;95.70
39315;DHT22;28703;44.412;11.918;2023-03-31T01:41:00;15.00;95.60
39315;DHT22;28703;44.412;11.918;2023-03-31T01:46:27;15.00;95.80
39315;DHT22;28703;44.412;11.918;2023-03-31T01:51:33;15.00;95.80
39315;DHT22;28703;44.412;11.918;2023-03-31T01:54:47;15.00;95.80
39315;DHT22;28703;44.412;11.918;2023-03-31T02:00:06;15.00;96.20
39315;DHT22;28703;44.412;11.918;2023-03-31T02:02:44;15.00;96.30
39315;DHT22;28703;44.412;11.918;2023-03-31T02:05:16;15.00;96.50
39315;DHT22;28703;44.412;11.918;2023-03-31T02:07:55;14.90;96.50
39315;DHT22;28703;44.412;11.918;2023-03-31T02:10:24;14.90;96.50
39315;DHT22;28703;44.412;11.918;2023-03-31T02:12:52;14.80;96.60
39315;DHT22;28703;44.412;11.918;2023-03-31T02:15:29;14.80;96.50
39315;DHT22;28703;44.412;11.918;2023-03-31T02:18:00;14.80;96.60
39315;DHT22;28703;44.412;11.918;2023-03-31T02:20:28;14.80;96.60
39315;DHT22;28703;44.412;11.918;2023-03-31T02:22:57;14.70;96.70
39315;DHT22;28703;44.412;11.918;2023-03-31T02:25:29;14.70;96.80
39315;DHT22;28703;44.412;11.918;2023-03-31T02:28:00;14.70;96.80
39315;DHT22;28703;44.412;11.918;2023-03-31T02:30:35;14.70;96.90
39315;DHT22;28703;44.412;11.918;2023-03-31T02:33:06;14.60;96.90
39315;DHT22;28703;44.412;11.918;2023-03-31T02:35:32;14.60;96.90
39315;DHT22;28703;44.412;11.918;2023-03-31T02:37:59;14.60;97.00
39315;DHT22;28703;44.412;11.918;2023-03-31T02:40:25;14.50;97.00
39315;DHT22;28703;44.412;11.918;2023-03-31T02:42:52;14.50;97.00
39315;DHT22;28703;44.412;11.918;2023-03-31T02:45:38;14.50;97.10
39315;DHT22;28703;44.412;11.918;2023-03-31T02:48:06;14.50;97.10
39315;DHT22;28703;44.412;11.918;2023-03-31T02:56:43;14.30;97.10
39315;DHT22;28703;44.412;11.918;2023-03-31T03:05:57;14.20;97.30
39315;DHT22;28703;44.412;11.918;2023-03-31T03:12:15;14.10;97.30
39315;DHT22;28703;44.412;11.918;2023-03-31T03:17:23;14.10;97.50
39315;DHT22;28703;44.412;11.918;2023-03-31T03:19:56;14.00;97.50
39315;DHT22;28703;44.412;11.918;2023-03-31T03:22:23;14.00;97.50
39315;DHT22;28703;44.412;11.918;2023-03-31T03:24:49;14.00;97.50
39315;DHT22;28703;44.412;11.918;2023-03-31T03:27:17;13.90;97.50
39315;DHT22;28703;44.412;11.918;2023-03-31T03:29:43;13.90;97.60
39315;DHT22;28703;44.412;11.918;2023-03-31T03:32:10;13.90;97.70
39315;DHT22;28703;44.412;11.918;2023-03-31T03:34:36;13.80;97.60
39315;DHT22;28703;44.412;11.918;2023-03-31T03:37:02;13.80;97.70
39315;DHT22;28703;44.412;11.918;2023-03-31T03:39:28;13.80;97.80
39315;DHT22;28703;44.412;11.918;2023-03-31T03:41:56;13.80;97.80
39315;DHT22;28703;44.412;11.918;2023-03-31T03:44:22;13.80;97.90
39315;DHT22;28703;44.412;11.918;2023-03-31T03:46:48;13.80;98.00
39315;DHT22;28703;44.412;11.918;2023-03-31T03:49:14;13.80;98.00
39315;DHT22;28703;44.412;11.918;2023-03-31T03:51:40;13.70;98.00
39315;DHT22;28703;44.412;11.918;2023-03-31T03:54:06;13.70;98.10
39315;DHT22;28703;44.412;11.918;2023-03-31T03:56:32;13.70;98.10
39315;DHT22;28703;44.412;11.918;2023-03-31T03:58:57;13.70;98.10
39315;DHT22;28703;44.412;11.918;2023-03-31T04:01:26;13.70;98.10
39315;DHT22;28703;44.412;11.918;2023-03-31T04:03:52;13.70;98.20
39315;DHT22;28703;44.412;11.918;2023-03-31T04:06:18;13.70;98.20
39315;DHT22;28703;44.412;11.918;2023-03-31T04:08:44;13.70;98.20
39315;DHT22;28703;44.412;11.918;2023-03-31T04:11:13;13.70;98.20
39315;DHT22;28703;44.412;11.918;2023-03-31T04:13:39;13.60;98.20
39315;DHT22;28703;44.412;11.918;2023-03-31T04:16:06;13.60;98.20
39315;DHT22;28703;44.412;11.918;2023-03-31T04:18:32;13.60;98.30
39315;DHT22;28703;44.412;11.918;2023-03-31T04:21:02;13.50;98.30
39315;DHT22;28703;44.412;11.918;2023-03-31T04:23:32;13.50;98.40
39315;DHT22;28703;44.412;11.918;2023-03-31T04:25:59;13.50;98.50
39315;DHT22;28703;44.412;11.918;2023-03-31T04:28:25;13.40;98.50
39315;DHT22;28703;44.412;11.918;2023-03-31T04:30:54;13.40;98.50
39315;DHT22;28703;44.412;11.918;2023-03-31T04:33:23;13.40;98.50
39315;DHT22;28703;44.412;11.918;2023-03-31T04:35:49;13.40;98.60
39315;DHT22;28703;44.412;11.918;2023-03-31T04:38:19;13.40;98.60
39315;DHT22;28703;44.412;11.918;2023-03-31T04:40:50;13.40;98.60
39315;DHT22;28703;44.412;11.918;2023-03-31T04:43:18;13.40;98.70
39315;DHT22;28703;44.412;11.918;2023-03-31T04:45:44;13.30;98.70
39315;DHT22;28703;44.412;11.918;2023-03-31T04:48:10;13.30;98.70
39315;DHT22;28703;44.412;11.918;2023-03-31T04:50:37;13.30;98.70
39315;DHT22;28703;44.412;11.918;2023-03-31T04:53:04;13.30;98.70
39315;DHT22;28703;44.412;11.918;2023-03-31T04:55:30;13.30;98.80
39315;DHT22;28703;44.412;11.918;2023-03-31T04:57:56;13.30;98.80
39315;DHT22;28703;44.412;11.918;2023-03-31T05:00:22;13.30;98.90
39315;DHT22;28703;44.412;11.918;2023-03-31T05:02:48;13.20;98.90
39315;DHT22;28703;44.412;11.918;2023-03-31T05:05:17;13.30;99.00
39315;DHT22;28703;44.412;11.918;2023-03-31T05:07:43;13.30;99.00
39315;DHT22;28703;44.412;11.918;2023-03-31T05:10:09;13.30;99.10
39315;DHT22;28703;44.412;11.918;2023-03-31T05:12:36;13.30;99.20
39315;DHT22;28703;44.412;11.918;2023-03-31T05:15:06;13.30;99.30
39315;DHT22;28703;44.412;11.918;2023-03-31T05:17:34;13.30;99.30
39315;DHT22;28703;44.412;11.918;2023-03-31T05:20:00;13.30;99.30
39315;DHT22;28703;44.412;11.918;2023-03-31T05:22:26;13.30;99.30
39315;DHT22;28703;44.412;11.918;2023-03-31T05:24:54;13.30;99.40
39315;DHT22;28703;44.412;11.918;2023-03-31T05:27:20;13.30;99.40
39315;DHT22;28703;44.412;11.918;2023-03-31T05:29:46;13.30;99.40
39315;DHT22;28703;44.412;11.918;2023-03-31T05:32:12;13.30;99.40
39315;DHT22;28703;44.412;11.918;2023-03-31T05:34:41;13.30;99.40
39315;DHT22;28703;44.412;11.918;2023-03-31T05:37:08;13.30;99.40
39315;DHT22;28703;44.412;11.918;2023-03-31T05:39:34;13.30;99.50
39315;DHT22;28703;44.412;11.918;2023-03-31T05:42:00;13.30;99.50
39315;DHT22;28703;44.412;11.918;2023-03-31T05:44:27;13.30;99.50
39315;DHT22;28703;44.412;11.918;2023-03-31T05:46:53;13.30;99.50
39315;DHT22;28703;44.412;11.918;2023-03-31T05:49:19;13.30;99.50
39315;DHT22;28703;44.412;11.918;2023-03-31T05:51:45;13.30;99.60
39315;DHT22;28703;44.412;11.918;2023-03-31T05:54:12;13.40;99.70
39315;DHT22;28703;44.412;11.918;2023-03-31T05:56:39;13.40;99.80
39315;DHT22;28703;44.412;11.918;2023-03-31T05:59:05;13.40;99.80
39315;DHT22;28703;44.412;11.918;2023-03-31T06:01:31;13.40;99.80
39315;DHT22;28703;44.412;11.918;2023-03-31T06:03:57;13.40;99.80
39315;DHT22;28703;44.412;11.918;2023-03-31T06:06:23;13.40;99.80
39315;DHT22;28703;44.412;11.918;2023-03-31T06:08:53;13.50;99.90
39315;DHT22;28703;44.412;11.918;2023-03-31T06:11:22;13.50;99.90
39315;DHT22;28703;44.412;11.918;2023-03-31T06:13:48;13.50;99.90
39315;DHT22;28703;44.412;11.918;2023-03-31T06:16:16;13.50;99.90
39315;DHT22;28703;44.412;11.918;2023-03-31T06:18:42;13.50;99.80
39315;DHT22;28703;44.412;11.918;2023-03-31T06:21:12;13.60;99.90
39315;DHT22;28703;44.412;11.918;2023-03-31T06:23:39;13.60;99.90
39315;DHT22;28703;44.412;11.918;2023-03-31T06:26:06;13.60;99.90
39315;DHT22;28703;44.412;11.918;2023-03-31T06:28:35;13.60;99.90
39315;DHT22;28703;44.412;11.918;2023-03-31T06:31:09;13.70;99.90
39315;DHT22;28703;44.412;11.918;2023-03-31T06:33:38;13.80;99.90
39315;DHT22;28703;44.412;11.918;2023-03-31T06:36:06;13.80;99.90
39315;DHT22;28703;44.412;11.918;2023-03-31T06:38:35;13.80;99.90
39315;DHT22;28703;44.412;11.918;2023-03-31T06:41:08;13.90;99.90
39315;DHT22;28703;44.412;11.918;2023-03-31T06:43:36;13.90;99.90
39315;DHT22;28703;44.412;11.918;2023-03-31T06:46:11;14.00;99.90
39315;DHT22;28703;44.412;11.918;2023-03-31T06:48:41;14.00;99.90
39315;DHT22;28703;44.412;11.918;2023-03-31T06:51:08;14.10;99.90
39315;DHT22;28703;44.412;11.918;2023-03-31T06:53:35;14.10;99.90
39315;DHT22;28703;44.412;11.918;2023-03-31T06:56:02;14.10;99.90
39315;DHT22;28703;44.412;11.918;2023-03-31T06:58:28;14.10;99.90
39315;DHT22;28703;44.412;11.918;2023-03-31T07:00:54;14.20;99.90
39315;DHT22;28703;44.412;11.918;2023-03-31T07:03:20;14.20;99.90
39315;DHT22;28703;44.412;11.918;2023-03-31T07:05:48;14.30;99.90
39315;DHT22;28703;44.412;11.918;2023-03-31T07:08:14;14.30;99.90
39315;DHT22;28703;44.412;11.918;2023-03-31T07:10:43;14.40;99.90
39315;DHT22;28703;44.412;11.918;2023-03-31T07:13:14;14.40;99.90
39315;DHT22;28703;44.412;11.918;2023-03-31T07:15:40;14.50;99.90
39315;DHT22;28703;44.412;11.918;2023-03-31T07:18:07;14.60;99.90
39315;DHT22;28703;44.412;11.918;2023-03-31T07:20:33;14.60;99.90
39315;DHT22;28703;44.412;11.918;2023-03-31T07:23:02;14.70;99.90
39315;DHT22;28703;44.412;11.918;2023-03-31T07:25:29;14.70;99.90
39315;DHT22;28703;44.412;11.918;2023-03-31T07:27:55;14.80;99.90
39315;DHT22;28703;44.412;11.918;2023-03-31T07:30:21;14.80;99.90
39315;DHT22;28703;44.412;11.918;2023-03-31T07:32:50;14.90;99.90
39315;DHT22;28703;44.412;11.918;2023-03-31T07:35:17;15.00;99.90
39315;DHT22;28703;44.412;11.918;2023-03-31T07:37:45;15.00;99.90
39315;DHT22;28703;44.412;11.918;2023-03-31T07:40:16;15.10;99.90
39315;DHT22;28703;44.412;11.918;2023-03-31T07:42:42;15.20;99.90
39315;DHT22;28703;44.412;11.918;2023-03-31T07:45:09;15.20;99.90
39315;DHT22;28703;44.412;11.918;2023-03-31T07:47:41;15.30;99.90
39315;DHT22;28703;44.412;11.918;2023-03-31T07:50:12;15.40;99.90
39315;DHT22;28703;44.412;11.918;2023-03-31T07:52:39;15.50;99.90
39315;DHT22;28703;44.412;11.918;2023-03-31T07:55:06;15.60;99.90
39315;DHT22;28703;44.412;11.918;2023-03-31T07:57:33;15.60;99.90
39315;DHT22;28703;44.412;11.918;2023-03-31T08:00:04;15.70;99.90
39315;DHT22;28703;44.412;11.918;2023-03-31T08:02:38;15.80;99.90
39315;DHT22;28703;44.412;11.918;2023-03-31T08:05:12;15.90;99.90
39315;DHT22;28703;44.412;11.918;2023-03-31T08:07:43;16.00;99.90
39315;DHT22;28703;44.412;11.918;2023-03-31T08:10:15;16.00;99.90
39315;DHT22;28703;44.412;11.918;2023-03-31T08:12:45;16.10;99.90
39315;DHT22;28703;44.412;11.918;2023-03-31T08:15:11;16.20;99.90
39315;DHT22;28703;44.412;11.918;2023-03-31T08:17:38;16.20;99.90
39315;DHT22;28703;44.412;11.918;2023-03-31T08:20:04;16.30;99.90
39315;DHT22;28703;44.412;11.918;2023-03-31T08:22:32;16.30;99.90
39315;DHT22;28703;44.412;11.918;2023-03-31T08:25:00;16.40;99.90
39315;DHT22;28703;44.412;11.918;2023-03-31T08:27:36;16.50;99.90
39315;DHT22;28703;44.412;11.918;2023-03-31T08:30:03;16.50;99.90
39315;DHT22;28703;44.412;11.918;2023-03-31T08:32:49;16.60;99.90
39315;DHT22;28703;44.412;11.918;2023-03-31T08:35:15;16.70;99.90
39315;DHT22;28703;44.412;11.918;2023-03-31T08:37:41;16.80;99.90
39315;DHT22;28703;44.412;11.918;2023-03-31T08:40:15;16.80;99.90
39315;DHT22;28703;44.412;11.918;2023-03-31T08:43:01;17.00;99.90
39315;DHT22;28703;44.412;11.918;2023-03-31T08:45:33;17.00;99.90
39315;DHT22;28703;44.412;11.918;2023-03-31T08:48:06;17.10;99.90
39315;DHT22;28703;44.412;11.918;2023-03-31T08:50:41;17.20;99.90
39315;DHT22;28703;44.412;11.918;2023-03-31T08:53:28;17.30;99.90
39315;DHT22;28703;44.412;11.918;2023-03-31T08:55:57;17.30;99.90
39315;DHT22;28703;44.412;11.918;2023-03-31T08:58:58;17.40;99.90
39315;DHT22;28703;44.412;11.918;2023-03-31T09:12:34;17.60;99.20
39315;DHT22;28703;44.412;11.918;2023-03-31T09:15:49;17.60;98.90
39315;DHT22;28703;44.412;11.918;2023-03-31T09:17:59;17.70;99.00
39315;DHT22;28703;44.412;11.918;2023-03-31T09:20:35;17.70;98.90
39315;DHT22;28703;44.412;11.918;2023-03-31T09:25:45;17.80;98.10
39315;DHT22;28703;44.412;11.918;2023-03-31T09:28:38;17.90;98.10
39315;DHT22;28703;44.412;11.918;2023-03-31T09:31:15;17.90;97.60
39315;DHT22;28703;44.412;11.918;2023-03-31T09:33:44;17.90;97.70
39315;DHT22;28703;44.412;11.918;2023-03-31T09:36:20;17.90;97.70
39315;DHT22;28703;44.412;11.918;2023-03-31T09:38:49;18.00;97.40
39315;DHT22;28703;44.412;11.918;2023-03-31T09:41:18;17.90;97.40
39315;DHT22;28703;44.412;11.918;2023-03-31T09:43:46;17.90;97.30
39315;DHT22;28703;44.412;11.918;2023-03-31T09:46:28;18.00;97.10
39315;DHT22;28703;44.412;11.918;2023-03-31T09:49:01;17.90;96.80
39315;DHT22;28703;44.412;11.918;2023-03-31T09:51:33;17.70;96.90
39315;DHT22;28703;44.412;11.918;2023-03-31T09:54:06;17.70;96.90
39315;DHT22;28703;44.412;11.918;2023-03-31T09:56:44;17.80;96.80
39315;DHT22;28703;44.412;11.918;2023-03-31T09:59:19;17.70;97.00
39315;DHT22;28703;44.412;11.918;2023-03-31T10:01:49;17.70;96.50
39315;DHT22;28703;44.412;11.918;2023-03-31T10:04:24;17.60;96.60
39315;DHT22;28703;44.412;11.918;2023-03-31T10:06:51;17.70;96.70
39315;DHT22;28703;44.412;11.918;2023-03-31T10:09:20;17.70;96.60
39315;DHT22;28703;44.412;11.918;2023-03-31T10:11:56;17.70;96.80
39315;DHT22;28703;44.412;11.918;2023-03-31T10:14:45;17.80;96.70
39315;DHT22;28703;44.412;11.918;2023-03-31T10:17:23;17.80;96.80
39315;DHT22;28703;44.412;11.918;2023-03-31T10:19:59;17.80;97.00
39315;DHT22;28703;44.412;11.918;2023-03-31T10:22:34;17.80;97.20
39315;DHT22;28703;44.412;11.918;2023-03-31T10:25:15;17.90;97.10
39315;DHT22;28703;44.412;11.918;2023-03-31T10:27:46;17.90;96.90
39315;DHT22;28703;44.412;11.918;2023-03-31T10:30:23;17.90;96.90
39315;DHT22;28703;44.412;11.918;2023-03-31T10:32:54;17.80;96.80
39315;DHT22;28703;44.412;11.918;2023-03-31T10:35:29;17.70;97.40
39315;DHT22;28703;44.412;11.918;2023-03-31T10:38:03;17.70;97.30
39315;DHT22;28703;44.412;11.918;2023-03-31T10:40:32;17.70;97.30
39315;DHT22;28703;44.412;11.918;2023-03-31T10:43:12;17.70;97.40
39315;DHT22;28703;44.412;11.918;2023-03-31T10:45:46;17.60;97.00
39315;DHT22;28703;44.412;11.918;2023-03-31T10:48:35;17.60;97.30
39315;DHT22;28703;44.412;11.918;2023-03-31T10:51:14;17.70;97.40
39315;DHT22;28703;44.412;11.918;2023-03-31T10:53:47;17.80;97.40
39315;DHT22;28703;44.412;11.918;2023-03-31T10:59:08;18.00;96.70
39315;DHT22;28703;44.412;11.918;2023-03-31T11:04:44;18.20;96.70
39315;DHT22;28703;44.412;11.918;2023-03-31T11:15:39;18.70;96.30
39315;DHT22;28703;44.412;11.918;2023-03-31T11:27:12;18.90;96.20
39315;DHT22;28703;44.412;11.918;2023-03-31T11:35:44;19.00;95.40
39315;DHT22;28703;44.412;11.918;2023-03-31T11:39:19;19.00;95.00
39315;DHT22;28703;44.412;11.918;2023-03-31T11:42:00;19.10;95.40
39315;DHT22;28703;44.412;11.918;2023-03-31T11:44:27;19.20;95.40
39315;DHT22;28703;44.412;11.918;2023-03-31T11:47:18;19.30;95.50
39315;DHT22;28703;44.412;11.918;2023-03-31T11:49:54;19.40;95.00
39315;DHT22;28703;44.412;11.918;2023-03-31T11:52:26;19.50;94.90
39315;DHT22;28703;44.412;11.918;2023-03-31T11:57:43;19.50;94.80
39315;DHT22;28703;44.412;11.918;2023-03-31T12:05:32;19.60;94.50
39315;DHT22;28703;44.412;11.918;2023-03-31T12:11:02;19.70;94.70
39315;DHT22;28703;44.412;11.918;2023-03-31T12:16:21;19.70;95.10
39315;DHT22;28703;44.412;11.918;2023-03-31T12:21:38;19.80;94.90
39315;DHT22;28703;44.412;11.918;2023-03-31T12:24:08;19.80;95.00
39315;DHT22;28703;44.412;11.918;2023-03-31T12:29:31;19.90;94.60
39315;DHT22;28703;44.412;11.918;2023-03-31T12:32:09;19.90;94.80
39315;DHT22;28703;44.412;11.918;2023-03-31T12:35:03;20.00;95.00
39315;DHT22;28703;44.412;11.918;2023-03-31T12:46:31;19.80;94.60
39315;DHT22;28703;44.412;11.918;2023-03-31T12:49:10;19.80;94.80
39315;DHT22;28703;44.412;11.918;2023-03-31T12:57:23;19.80;94.60
39315;DHT22;28703;44.412;11.918;2023-03-31T13:02:38;19.80;95.10
39315;DHT22;28703;44.412;11.918;2023-03-31T13:08:07;19.80;95.20
39315;DHT22;28703;44.412;11.918;2023-03-31T13:13:19;19.70;95.80
39315;DHT22;28703;44.412;11.918;2023-03-31T13:15:53;19.80;95.70
39315;DHT22;28703;44.412;11.918;2023-03-31T13:18:21;19.90;95.70
39315;DHT22;28703;44.412;11.918;2023-03-31T13:21:00;19.90;95.80
39315;DHT22;28703;44.412;11.918;2023-03-31T13:23:33;19.80;95.70
39315;DHT22;28703;44.412;11.918;2023-03-31T13:26:00;19.80;96.00
39315;DHT22;28703;44.412;11.918;2023-03-31T13:28:37;19.70;96.00
39315;DHT22;28703;44.412;11.918;2023-03-31T13:33:56;19.80;96.10
39315;DHT22;28703;44.412;11.918;2023-03-31T13:53:34;20.40;96.40
39315;DHT22;28703;44.412;11.918;2023-03-31T14:07:43;20.80;96.20
39315;DHT22;28703;44.412;11.918;2023-03-31T14:10:35;20.80;96.00
39315;DHT22;28703;44.412;11.918;2023-03-31T14:13:24;20.90;95.90
39315;DHT22;28703;44.412;11.918;2023-03-31T14:15:52;21.10;95.80
39315;DHT22;28703;44.412;11.918;2023-03-31T14:18:31;21.20;95.80
39315;DHT22;28703;44.412;11.918;2023-03-31T14:21:10;21.40;95.80
39315;DHT22;28703;44.412;11.918;2023-03-31T14:23:53;21.50;95.40
39315;DHT22;28703;44.412;11.918;2023-03-31T14:26:35;21.70;95.10
39315;DHT22;28703;44.412;11.918;2023-03-31T14:29:24;21.70;95.20
39315;DHT22;28703;44.412;11.918;2023-03-31T14:32:01;21.80;94.80
39315;DHT22;28703;44.412;11.918;2023-03-31T14:34:47;21.70;95.00
39315;DHT22;28703;44.412;11.918;2023-03-31T14:37:15;21.50;95.00
39315;DHT22;28703;44.412;11.918;2023-03-31T14:39:51;21.20;95.30
39315;DHT22;28703;44.412;11.918;2023-03-31T14:42:44;21.20;95.90
39315;DHT22;28703;44.412;11.918;2023-03-31T14:45:21;21.10;95.80
39315;DHT22;28703;44.412;11.918;2023-03-31T14:48:22;21.20;95.90
39315;DHT22;28703;44.412;11.918;2023-03-31T14:50:48;21.10;95.70
39315;DHT22;28703;44.412;11.918;2023-03-31T14:53:21;21.00;95.90
39315;DHT22;28703;44.412;11.918;2023-03-31T14:56:25;21.00;96.00
39315;DHT22;28703;44.412;11.918;2023-03-31T14:58:57;21.00;95.80
39315;DHT22;28703;44.412;11.918;2023-03-31T15:01:28;20.80;96.10
39315;DHT22;28703;44.412;11.918;2023-03-31T15:04:13;20.70;96.10
39315;DHT22;28703;44.412;11.918;2023-03-31T15:06:44;20.70;96.10
39315;DHT22;28703;44.412;11.918;2023-03-31T15:09:32;20.60;96.10
39315;DHT22;28703;44.412;11.918;2023-03-31T15:12:06;20.50;96.20
39315;DHT22;28703;44.412;11.918;2023-03-31T15:14:37;20.40;96.40
39315;DHT22;28703;44.412;11.918;2023-03-31T15:17:14;20.10;96.70
39315;DHT22;28703;44.412;11.918;2023-03-31T15:19:41;20.10;97.00
39315;DHT22;28703;44.412;11.918;2023-03-31T15:22:22;20.10;96.90
39315;DHT22;28703;44.412;11.918;2023-03-31T15:24:55;20.30;97.00
39315;DHT22;28703;44.412;11.918;2023-03-31T15:27:33;20.50;97.10
39315;DHT22;28703;44.412;11.918;2023-03-31T15:30:03;20.90;96.60
39315;DHT22;28703;44.412;11.918;2023-03-31T15:32:37;21.10;95.80
39315;DHT22;28703;44.412;11.918;2023-03-31T15:35:05;21.50;95.40
39315;DHT22;28703;44.412;11.918;2023-03-31T15:37:42;21.80;95.70
39315;DHT22;28703;44.412;11.918;2023-03-31T15:40:26;22.10;94.50
39315;DHT22;28703;44.412;11.918;2023-03-31T15:43:14;22.50;94.30
39315;DHT22;28703;44.412;11.918;2023-03-31T15:45:47;22.80;94.40
39315;DHT22;28703;44.412;11.918;2023-03-31T15:48:17;23.10;93.80
39315;DHT22;28703;44.412;11.918;2023-03-31T15:50:44;23.10;92.60
39315;DHT22;28703;44.412;11.918;2023-03-31T15:53:29;23.10;92.20
39315;DHT22;28703;44.412;11.918;2023-03-31T15:55:57;23.10;91.70
39315;DHT22;28703;44.412;11.918;2023-03-31T15:59:02;22.90;91.90
39315;DHT22;28703;44.412;11.918;2023-03-31T16:01:36;23.10;91.70
39315;DHT22;28703;44.412;11.918;2023-03-31T16:04:09;22.70;92.10
39315;DHT22;28703;44.412;11.918;2023-03-31T16:09:10;22.60;91.60
39315;DHT22;28703;44.412;11.918;2023-03-31T16:11:44;22.40;92.30
39315;DHT22;28703;44.412;11.918;2023-03-31T16:14:28;22.40;92.10
39315;DHT22;28703;44.412;11.918;2023-03-31T16:17:08;22.20;92.40
39315;DHT22;28703;44.412;11.918;2023-03-31T16:19:46;22.00;92.70
39315;DHT22;28703;44.412;11.918;2023-03-31T16:22:18;21.70;92.90
39315;DHT22;28703;44.412;11.918;2023-03-31T16:24:46;21.40;93.30
39315;DHT22;28703;44.412;11.918;2023-03-31T16:27:13;21.30;93.60
39315;DHT22;28703;44.412;11.918;2023-03-31T16:29:39;21.40;93.30
39315;DHT22;28703;44.412;11.918;2023-03-31T16:32:14;21.40;93.40
39315;DHT22;28703;44.412;11.918;2023-03-31T16:34:59;21.30;93.80
39315;DHT22;28703;44.412;11.918;2023-03-31T16:37:26;21.50;93.40
39315;DHT22;28703;44.412;11.918;2023-03-31T16:39:52;21.60;93.60
39315;DHT22;28703;44.412;11.918;2023-03-31T16:42:19;21.80;93.60
39315;DHT22;28703;44.412;11.918;2023-03-31T16:44:45;22.00;93.10
39315;DHT22;28703;44.412;11.918;2023-03-31T16:47:14;22.30;92.60
39315;DHT22;28703;44.412;11.918;2023-03-31T16:49:41;22.50;92.30
39315;DHT22;28703;44.412;11.918;2023-03-31T16:52:06;22.70;92.00
39315;DHT22;28703;44.412;11.918;2023-03-31T16:54:34;22.60;92.00
39315;DHT22;28703;44.412;11.918;2023-03-31T16:57:00;22.40;92.10
39315;DHT22;28703;44.412;11.918;2023-03-31T16:59:31;22.10;92.00
39315;DHT22;28703;44.412;11.918;2023-03-31T17:01:58;22.00;92.20
39315;DHT22;28703;44.412;11.918;2023-03-31T17:04:24;21.90;92.30
39315;DHT22;28703;44.412;11.918;2023-03-31T17:06:49;21.70;92.40
39315;DHT22;28703;44.412;11.918;2023-03-31T17:09:16;21.40;92.60
39315;DHT22;28703;44.412;11.918;2023-03-31T17:11:43;21.10;92.90
39315;DHT22;28703;44.412;11.918;2023-03-31T17:14:09;20.90;93.00
39315;DHT22;28703;44.412;11.918;2023-03-31T17:16:35;20.90;93.00
39315;DHT22;28703;44.412;11.918;2023-03-31T17:19:01;20.80;93.20
39315;DHT22;28703;44.412;11.918;2023-03-31T17:21:27;20.70;93.30
39315;DHT22;28703;44.412;11.918;2023-03-31T17:23:53;20.60;93.40
39315;DHT22;28703;44.412;11.918;2023-03-31T17:26:19;20.50;93.60
39315;DHT22;28703;44.412;11.918;2023-03-31T17:28:45;20.40;93.80
39315;DHT22;28703;44.412;11.918;2023-03-31T17:31:18;20.30;93.80
39315;DHT22;28703;44.412;11.918;2023-03-31T17:33:44;20.10;94.10
39315;DHT22;28703;44.412;11.918;2023-03-31T17:36:11;19.90;94.10
39315;DHT22;28703;44.412;11.918;2023-03-31T17:38:37;19.90;94.10
39315;DHT22;28703;44.412;11.918;2023-03-31T17:41:07;19.70;94.20
39315;DHT22;28703;44.412;11.918;2023-03-31T17:43:33;19.60;94.20
39315;DHT22;28703;44.412;11.918;2023-03-31T17:46:05;19.40;94.40
39315;DHT22;28703;44.412;11.918;2023-03-31T17:48:33;19.20;94.40
39315;DHT22;28703;44.412;11.918;2023-03-31T17:51:10;19.10;94.60
39315;DHT22;28703;44.412;11.918;2023-03-31T17:53:38;19.00;94.50
39315;DHT22;28703;44.412;11.918;2023-03-31T17:56:04;18.80;94.70
39315;DHT22;28703;44.412;11.918;2023-03-31T17:58:31;18.70;94.80
39315;DHT22;28703;44.412;11.918;2023-03-31T18:00:57;18.70;94.90
39315;DHT22;28703;44.412;11.918;2023-03-31T18:03:26;18.60;95.00
39315;DHT22;28703;44.412;11.918;2023-03-31T18:05:52;18.50;95.20
39315;DHT22;28703;44.412;11.918;2023-03-31T18:08:18;18.40;95.30
39315;DHT22;28703;44.412;11.918;2023-03-31T18:10:44;18.30;95.50
39315;DHT22;28703;44.412;11.918;2023-03-31T18:13:10;18.30;95.40
39315;DHT22;28703;44.412;11.918;2023-03-31T18:15:37;18.20;95.60
39315;DHT22;28703;44.412;11.918;2023-03-31T18:18:04;18.10;95.80
39315;DHT22;28703;44.412;11.918;2023-03-31T18:20:30;18.00;95.90
39315;DHT22;28703;44.412;11.918;2023-03-31T18:22:56;18.00;96.00
39315;DHT22;28703;44.412;11.918;2023-03-31T18:25:23;18.00;96.20
39315;DHT22;28703;44.412;11.918;2023-03-31T18:27:49;17.90;96.30
39315;DHT22;28703;44.412;11.918;2023-03-31T18:30:15;17.90;96.40